ADDS METAR Data INFO
IDs: Format: Raw Decoded Include TAF

Data at: 0215 UTC 14 Dec 2017

KSBO 140150Z AUTO 31003KT 10SM CLR 06/M04 A2993 RMK AO2
KSBO 140130Z AUTO 32004KT 10SM CLR 06/M04 A2993 RMK AO2
KSBO 140110Z AUTO 34005KT 10SM CLR 06/M04 A2993 RMK AO2
KSBO 140050Z AUTO 31004KT 10SM CLR 06/M04 A2995 RMK AO2
KSBO 140030Z AUTO 30003KT 10SM CLR 06/M03 A2996 RMK AO2
KSBO 140015Z AUTO 00000KT 10SM CLR 06/M03 A2996 RMK AO2
KSBO 132350Z AUTO 30003KT 10SM CLR 06/M03 A2995 RMK AO2
KSBO 132330Z AUTO 30003KT 10SM CLR 07/M03 A2995 RMK AO2
KSBO 132310Z AUTO 00000KT 10SM CLR 07/M04 A2995 RMK AO2
KSBO 132250Z AUTO 00000KT 10SM CLR 08/M04 A2995 RMK AO2
KSBO 132230Z AUTO 00000KT 10SM CLR 08/M04 A2996 RMK AO2
KSBO 132210Z AUTO 29004KT 10SM CLR 10/M05 A2997 RMK AO2
KSBO 132155Z AUTO 28005KT 10SM CLR 10/M04 A2998 RMK AO2
KSBO 132130Z AUTO 28005KT 10SM CLR 11/M05 A2997 RMK AO2
KSBO 132110Z AUTO 28005KT 10SM CLR 11/M06 A2997 RMK AO2
KSBO 132055Z AUTO 30006KT 10SM CLR 11/M06 A2997 RMK AO2
KSBO 132035Z AUTO 30007KT 10SM CLR 11/M06 A2997 RMK AO2
KSBO 132010Z AUTO 30007KT 10SM CLR 11/M06 A2997 RMK AO2
KSBO 131955Z AUTO 32007KT 10SM CLR 11/M07 A2998 RMK AO2
KSBO 131930Z AUTO 29007KT 10SM CLR 11/M07 A2999 RMK AO2
KSBO 131910Z AUTO 29006KT 10SM CLR 11/M06 A3000 RMK AO2
KSBO 131850Z AUTO 30006KT 10SM CLR 10/M07 A3001 RMK AO2
KSBO 131830Z AUTO 32005KT 10SM CLR 10/M07 A3001 RMK AO2
KSBO 131810Z AUTO 33005KT 10SM CLR 09/M07 A3003 RMK AO2
KSBO 131750Z AUTO 28006KT 10SM CLR 09/M07 A3004 RMK AO2
KSBO 131735Z AUTO 31006KT 10SM CLR 08/M08 A3005 RMK AO2
KSBO 131710Z AUTO 29008KT 10SM CLR 07/M08 A3006 RMK AO2
KSBO 131650Z AUTO 30006KT 10SM CLR 07/M09 A3007 RMK AO2
KSBO 131630Z AUTO 29003KT 10SM CLR 06/M09 A3008 RMK AO2
KSBO 131610Z AUTO 31005KT 10SM CLR 06/M09 A3009 RMK AO2
KSBO 131555Z AUTO 32006KT 10SM CLR 05/M09 A3010 RMK AO2
KSBO 131530Z AUTO 29006KT 10SM CLR 05/M10 A3011 RMK AO2
KSBO 131510Z AUTO 28005KT 10SM CLR 04/M09 A3011 RMK AO2
KSBO 131450Z AUTO 29004KT 10SM CLR 03/M10 A3011 RMK AO2
KSBO 131430Z AUTO 31006KT 10SM CLR 03/M10 A3010 RMK AO2
KSBO 131410Z AUTO 30008KT 10SM CLR 02/M09 A3009 RMK AO2
KSBO 131350Z AUTO 29009KT 10SM CLR 02/M09 A3009 RMK AO2
KSBO 131335Z AUTO 30007KT 10SM CLR 01/M08 A3008 RMK AO2
KSBO 131310Z AUTO 30007KT 10SM CLR 01/M08 A3007 RMK AO2
KSBO 131250Z AUTO 29006KT 10SM CLR 00/M08 A3006 RMK AO2
KSBO 131230Z AUTO 29006KT 10SM CLR 00/M08 A3006 RMK AO2
KSBO 131210Z AUTO 30007KT 10SM CLR 00/M08 A3006 RMK AO2
KSBO 131150Z AUTO 31008KT 10SM CLR 00/M07 A3005 RMK AO2
KSBO 131130Z AUTO 32007KT 10SM CLR 00/M07 A3005 RMK AO2
KSBO 131110Z AUTO 31006KT 10SM CLR 01/M07 A3004 RMK AO2
KSBO 131050Z AUTO 31007KT 10SM CLR 01/M06 A3003 RMK AO2
KSBO 131030Z AUTO 31006KT 10SM CLR 01/M06 A3003 RMK AO2
KSBO 131010Z AUTO 31006KT 10SM CLR 01/M05 A3003 RMK AO2
KSBO 130950Z AUTO 31008KT 10SM CLR 01/M05 A3003 RMK AO2
KSBO 130930Z AUTO 30010KT 10SM CLR 02/M06 A3002 RMK AO2
KSBO 130910Z AUTO 30006KT 10SM CLR 02/M04 A3001 RMK AO2
KSBO 130850Z AUTO 30009G14KT 10SM CLR 02/M04 A3001 RMK AO2
KSBO 130830Z AUTO 29006KT 10SM CLR 02/M03 A3001 RMK AO2
KSBO 130810Z AUTO 30006KT 10SM CLR 03/M03 A3001 RMK AO2
KSBO 130750Z AUTO 29006G14KT 10SM CLR 03/M03 A2999 RMK AO2
KSBO 130730Z AUTO 31009KT 10SM CLR 04/M03 A2998 RMK AO2
KSBO 130710Z AUTO 30009G14KT 10SM CLR 04/M03 A2998 RMK AO2
KSBO 130650Z AUTO 30012G15KT 10SM CLR 04/M02 A2997 RMK AO2
KSBO 130635Z AUTO 30010KT 10SM CLR 03/M01 A2998 RMK AO2
KSBO 130615Z AUTO 30008KT 10SM CLR 03/00 A2998 RMK AO2
KSBO 130555Z AUTO 29007KT 10SM CLR 04/00 A2997 RMK AO2
KSBO 130535Z AUTO 29005KT 10SM CLR 04/00 A2997 RMK AO2
KSBO 130515Z AUTO 29005KT 10SM CLR 05/00 A2997 RMK AO2
KSBO 130455Z AUTO 30006KT 10SM CLR 05/00 A2998 RMK AO2
KSBO 130435Z AUTO 29008KT 10SM CLR 06/00 A2996 RMK AO2
KSBO 130415Z AUTO 28006KT 10SM CLR 05/00 A2997 RMK AO2 LTG DSNT E
KSBO 130355Z AUTO 29005KT 10SM CLR 06/00 A2996 RMK AO2
KSBO 130335Z AUTO 30006KT 10SM CLR 06/00 A2996 RMK AO2
KSBO 130315Z AUTO 29008KT 10SM CLR 06/00 A2996 RMK AO2
KSBO 130255Z AUTO 29007KT 10SM CLR 06/00 A2995 RMK AO2
KSBO 130235Z AUTO 30007KT 10SM CLR 06/00 A2996 RMK AO2
KSBO 130215Z AUTO 29005KT 10SM CLR 06/00 A2996 RMK AO2
KSBO 130155Z AUTO 30005KT 10SM CLR 06/00 A2995 RMK AO2
KSBO 130135Z AUTO 30005KT 10SM CLR 07/00 A2995 RMK AO2
KSBO 130115Z AUTO 29007KT 10SM CLR 07/00 A2994 RMK AO2
KSBO 130055Z AUTO 30008KT 10SM CLR 07/00 A2994 RMK AO2
KSBO 130035Z AUTO 30008KT 10SM CLR 08/00 A2994 RMK AO2
KSBO 130015Z AUTO 30007KT 10SM CLR 08/00 A2994 RMK AO2
KSBO 122355Z AUTO 31008KT 10SM CLR 08/00 A2993 RMK AO2
KSBO 122335Z AUTO 29009KT 10SM CLR 09/00 A2992 RMK AO2
KSBO 122315Z AUTO 30008KT 10SM CLR 09/01 A2991 RMK AO2
KSBO 122255Z AUTO 30008KT 10SM CLR 10/01 A2990 RMK AO2
KSBO 122235Z AUTO 29009KT 10SM CLR 10/01 A2989 RMK AO2
KSBO 122215Z AUTO 29008KT 10SM CLR 11/01 A2988 RMK AO2
KSBO 122155Z AUTO 29010G21KT 10SM CLR 12/00 A2988 RMK AO2
KSBO 122135Z AUTO 30012G20KT 10SM CLR 12/01 A2987 RMK AO2 LTG DSNT E
KSBO 122115Z AUTO 31015G19KT 10SM CLR 13/02 A2986 RMK AO2
KSBO 122055Z AUTO 31009G23KT 10SM CLR 13/01 A2985 RMK AO2 LTG DSNT E
KSBO 122035Z AUTO 30012G21KT 10SM CLR 14/01 A2984 RMK AO2 LTG DSNT E
KSBO 122015Z AUTO 31017G23KT 10SM CLR 15/01 A2984 RMK AO2
KSBO 121955Z AUTO 28012G20KT 10SM CLR 15/01 A2983 RMK AO2
KSBO 121935Z AUTO 29013G20KT 10SM CLR 15/01 A2982 RMK AO2
KSBO 121915Z AUTO 29011G23KT 10SM CLR 15/01 A2981 RMK AO2
KSBO 121855Z AUTO 29015G23KT 10SM CLR 15/01 A2981 RMK AO2
KSBO 121835Z AUTO 30016G26KT 10SM CLR 15/01 A2981 RMK AO2
KSBO 121815Z AUTO 30015G24KT 10SM CLR 15/01 A2982 RMK AO2
KSBO 121755Z AUTO 31014G19KT 10SM CLR 15/02 A2982 RMK AO2
KSBO 121735Z AUTO 29013G23KT 10SM CLR 15/02 A2983 RMK AO2
KSBO 121715Z AUTO 29012G21KT 10SM CLR 14/03 A2983 RMK AO2
KSBO 121655Z AUTO 29011G17KT 10SM CLR 13/03 A2984 RMK AO2
KSBO 121635Z AUTO 29010G18KT 10SM CLR 13/05 A2985 RMK AO2
KSBO 121615Z AUTO 29012G20KT 10SM CLR 13/05 A2986 RMK AO2
KSBO 121555Z AUTO 29008G15KT 10SM CLR 13/05 A2986 RMK AO2
KSBO 121535Z AUTO 28009KT 10SM CLR 12/06 A2986 RMK AO2
KSBO 121515Z AUTO 28009G15KT 10SM CLR 11/06 A2986 RMK AO2
KSBO 121455Z AUTO 28010G14KT 10SM CLR 11/06 A2986 RMK AO2
KSBO 121435Z AUTO 28010G16KT 10SM CLR 10/06 A2987 RMK AO2